createdAt,value
2019-01-05T00:01:46.970Z,27.02
2019-01-05T00:04:46.008Z,26.23
2019-01-05T00:07:45.719Z,25.10
2019-01-05T00:10:45.146Z,26.75
2019-01-05T00:13:46.375Z,25.12
2019-01-05T00:16:45.491Z,25.23
2019-01-05T00:19:45.476Z,26.35
2019-01-05T00:22:45.423Z,25.20
2019-01-05T00:25:44.626Z,24.20
2019-01-05T00:28:49.783Z,23.95
2019-01-05T00:31:49.276Z,25.17
2019-01-05T00:34:47.333Z,25.62
2019-01-05T00:37:47.062Z,25.40
2019-01-05T00:40:49.070Z,25.15
2019-01-05T00:43:48.396Z,24.55
2019-01-05T00:46:47.752Z,25.00
2019-01-05T00:49:46.026Z,24.15
2019-01-05T00:52:45.824Z,23.50
2019-01-05T00:55:45.345Z,23.90
2019-01-05T00:58:48.284Z,23.40
2019-01-05T01:01:50.352Z,24.63
2019-01-05T01:04:49.646Z,23.07
2019-01-05T01:07:55.850Z,23.12
2019-01-05T01:10:55.052Z,23.07
2019-01-05T01:13:54.550Z,25.32
2019-01-05T01:16:53.391Z,22.82
2019-01-05T01:19:59.900Z,22.22
2019-01-05T01:22:59.060Z,22.87
2019-01-05T01:25:58.179Z,21.70
2019-01-05T01:28:57.589Z,22.95
2019-01-05T01:31:51.432Z,21.65
2019-01-05T01:34:51.103Z,20.65
2019-01-05T01:37:50.336Z,20.75
2019-01-05T01:40:44.774Z,19.73
2019-01-05T01:43:36.580Z,21.45
2019-01-05T01:46:36.195Z,20.12
2019-01-05T01:49:35.488Z,20.20
2019-01-05T01:52:34.672Z,19.62
2019-01-05T01:55:40.023Z,21.25
2019-01-05T01:58:39.224Z,20.97
2019-01-05T02:01:44.572Z,18.48
2019-01-05T02:04:43.744Z,20.25
2019-01-05T02:07:42.867Z,20.00
2019-01-05T02:10:48.688Z,22.00
2019-01-05T02:13:52.539Z,19.80
2019-01-05T02:16:51.903Z,19.27
2019-01-05T02:19:51.450Z,19.95
2019-01-05T02:22:51.314Z,21.30
2019-01-05T02:25:50.413Z,20.60
2019-01-05T02:28:53.006Z,19.35
2019-01-05T02:31:46.756Z,20.15
2019-01-05T02:34:41.712Z,21.15
2019-01-05T02:37:41.542Z,20.75
2019-01-05T02:40:58.743Z,21.33
2019-01-05T02:43:58.854Z,20.25
2019-01-05T02:46:58.138Z,20.17
2019-01-05T02:50:16.050Z,22.42
2019-01-05T02:53:33.964Z,21.77
2019-01-05T02:56:33.825Z,20.48
2019-01-05T02:59:32.992Z,23.12
2019-01-05T03:02:33.098Z,20.65
2019-01-05T03:05:35.229Z,21.70
2019-01-05T03:08:34.834Z,22.10
2019-01-05T03:11:34.879Z,21.77
2019-01-05T03:14:34.104Z,21.87
2019-01-05T03:17:25.907Z,22.30
2019-01-05T03:20:19.099Z,24.37
2019-01-05T03:23:10.019Z,24.05
2019-01-05T03:26:03.123Z,24.02
2019-01-05T03:29:03.045Z,23.20
2019-01-05T03:32:02.102Z,22.42
2019-01-05T03:35:01.626Z,25.68
2019-01-05T03:38:00.827Z,23.70
2019-01-05T03:41:06.061Z,23.87
2019-01-05T03:43:57.274Z,24.10
2019-01-05T03:46:53.490Z,27.07
2019-01-05T03:49:53.710Z,25.02
2019-01-05T03:52:59.308Z,25.37
2019-01-05T03:56:01.900Z,25.35
2019-01-05T03:59:01.346Z,26.30
2019-01-05T04:02:06.384Z,27.02
2019-01-05T04:05:32.334Z,25.97
2019-01-05T04:08:37.780Z,25.80
2019-01-05T04:11:37.234Z,27.10
2019-01-05T04:14:36.732Z,27.13
2019-01-05T04:17:36.795Z,26.60
2019-01-05T04:20:31.175Z,24.02
2019-01-05T04:23:31.061Z,26.15
2019-01-05T04:26:31.099Z,26.82
2019-01-05T04:29:31.282Z,27.10
2019-01-05T04:32:30.483Z,28.50
2019-01-05T04:35:29.945Z,27.58
2019-01-05T04:38:35.974Z,27.93
2019-01-05T04:41:29.362Z,25.72
2019-01-05T04:44:32.613Z,28.30
2019-01-05T04:47:31.916Z,27.48
2019-01-05T04:50:31.099Z,28.40
2019-01-05T04:53:27.310Z,26.37
2019-01-05T04:56:27.342Z,27.65
2019-01-05T04:59:53.567Z,28.65
2019-01-05T05:03:19.532Z,29.05
2019-01-05T05:06:25.122Z,28.87
2019-01-05T05:09:24.670Z,27.58
2019-01-05T05:12:23.979Z,29.80
2019-01-05T05:15:23.481Z,30.20
2019-01-05T05:18:23.121Z,30.43
2019-01-05T05:25:11.091Z,30.45
2019-01-05T05:28:37.068Z,30.25
2019-01-05T05:31:36.842Z,29.98
2019-01-05T05:34:35.960Z,31.57
2019-01-05T05:37:35.252Z,30.80
2019-01-05T05:40:39.429Z,30.62
2019-01-05T05:43:39.249Z,33.08
2019-01-05T05:46:39.185Z,31.45
2019-01-05T05:49:39.212Z,30.92
2019-01-05T05:52:44.771Z,32.67
2019-01-05T05:56:04.905Z,30.23
2019-01-05T05:59:07.263Z,32.17
2019-01-05T06:02:03.187Z,31.70
2019-01-05T06:05:02.480Z,33.05
2019-01-05T06:08:01.688Z,31.65
2019-01-05T06:11:00.894Z,31.45
2019-01-05T06:14:00.098Z,32.65
2019-01-05T06:16:56.830Z,31.10
2019-01-05T06:19:48.689Z,31.52
2019-01-05T06:22:48.507Z,33.83
2019-01-05T06:25:47.941Z,31.97
2019-01-05T06:28:47.264Z,32.13
2019-01-05T06:31:47.996Z,31.90
2019-01-05T06:34:47.607Z,31.40
2019-01-05T06:48:32.298Z,32.83
2019-01-05T06:51:58.255Z,30.37
2019-01-05T06:54:58.305Z,32.30
2019-01-05T06:58:03.574Z,36.17
2019-01-05T07:01:00.948Z,31.23
2019-01-05T07:04:25.792Z,32.65
2019-01-05T07:07:25.738Z,32.40
2019-01-05T07:10:30.811Z,32.60
2019-01-05T07:13:30.162Z,32.03
2019-01-05T07:16:29.255Z,30.70
2019-01-05T07:19:28.513Z,31.40
2019-01-05T07:22:28.563Z,34.33
2019-01-05T07:25:27.702Z,31.80
2019-01-05T07:28:27.029Z,33.85
2019-01-05T07:31:26.413Z,30.60
2019-01-05T07:34:26.454Z,34.15
2019-01-05T07:37:28.631Z,34.63
2019-01-05T07:40:28.089Z,31.07
2019-01-05T07:43:34.195Z,33.18
2019-01-05T07:46:34.212Z,34.18
2019-01-05T07:49:33.305Z,35.55
2019-01-05T07:52:32.695Z,34.25
2019-01-05T07:55:32.768Z,32.08
2019-01-05T07:58:31.960Z,33.98
2019-01-05T08:02:00.966Z,34.38
2019-01-05T08:05:37.868Z,38.63
2019-01-05T08:09:16.906Z,35.40
2019-01-05T08:15:22.436Z,35.03
2019-01-05T08:18:27.760Z,36.58
2019-01-05T08:21:18.780Z,38.90
2019-01-05T08:24:17.951Z,35.10
2019-01-05T08:27:17.299Z,36.93
2019-01-05T08:30:15.004Z,34.55
2019-01-05T08:33:14.414Z,37.00
2019-01-05T08:36:13.726Z,35.08
2019-01-05T08:39:12.848Z,35.80
2019-01-05T08:42:07.293Z,36.20
2019-01-05T08:45:07.224Z,36.20
2019-01-05T08:48:06.590Z,36.53
2019-01-05T08:51:06.392Z,37.30
2019-01-05T08:54:01.511Z,36.53
2019-01-05T08:57:00.713Z,34.78
2019-01-05T08:59:57.340Z,34.15
2019-01-05T09:02:57.511Z,34.00
2019-01-05T09:06:03.419Z,34.88
2019-01-05T09:09:03.059Z,35.70
2019-01-05T09:12:03.236Z,36.30
2019-01-05T09:15:03.389Z,35.00
2019-01-05T09:18:03.567Z,35.52
2019-01-05T09:21:12.769Z,36.17
2019-01-05T09:24:38.713Z,36.30
2019-01-05T09:27:38.172Z,32.20
2019-01-05T09:30:37.944Z,34.45
2019-01-05T09:33:37.835Z,36.58
2019-01-05T09:36:36.991Z,34.20
2019-01-05T09:39:36.361Z,37.15
2019-01-05T09:42:37.298Z,36.95
2019-01-05T09:45:42.789Z,35.17
2019-01-05T09:48:42.175Z,34.67
2019-01-05T09:51:42.156Z,36.35
2019-01-05T09:54:41.588Z,36.25
2019-01-05T09:57:40.970Z,33.50
2019-01-05T10:00:40.214Z,31.30
2019-01-05T10:03:40.364Z,30.23
2019-01-05T10:06:55.289Z,30.95
2019-01-05T10:09:52.574Z,32.50
2019-01-05T10:12:51.962Z,33.55
2019-01-05T10:15:51.503Z,30.10
2019-01-05T10:18:51.487Z,28.60
2019-01-05T10:25:17.154Z,25.80
2019-01-05T10:28:16.978Z,25.00
2019-01-05T10:31:16.300Z,26.48
2019-01-05T10:34:15.764Z,24.67
2019-01-05T10:37:15.816Z,23.45
2019-01-05T10:40:08.545Z,24.95
2019-01-05T10:43:07.983Z,19.82
2019-01-05T10:46:07.362Z,19.02
2019-01-05T10:49:05.672Z,20.08
2019-01-05T10:52:11.272Z,19.37
2019-01-05T10:55:10.494Z,19.15
2019-01-05T10:58:09.836Z,18.07
2019-01-05T11:01:15.491Z,15.95
2019-01-05T11:04:15.419Z,17.48
2019-01-05T11:07:18.516Z,16.37
2019-01-05T11:10:41.758Z,15.78
2019-01-05T11:14:07.722Z,15.58
2019-01-05T11:17:29.408Z,15.95
2019-01-05T11:20:35.872Z,13.72
2019-01-05T11:24:16.232Z,14.78
2019-01-05T11:27:02.398Z,14.50
2019-01-05T11:30:01.842Z,18.45
2019-01-05T11:33:01.662Z,15.55
2019-01-05T11:36:00.907Z,15.38
2019-01-05T11:39:00.072Z,16.32
2019-01-05T11:41:54.495Z,15.05
2019-01-05T11:44:54.363Z,13.93
2019-01-05T11:51:59.861Z,14.05
2019-01-05T11:54:59.412Z,13.58
2019-01-05T11:57:59.621Z,13.70
2019-01-05T12:00:59.664Z,13.50
2019-01-05T12:03:59.518Z,12.50
2019-01-05T12:06:58.726Z,11.20
2019-01-05T12:09:58.051Z,11.57
2019-01-05T12:12:57.236Z,11.80
2019-01-05T12:15:57.459Z,12.03
2019-01-05T12:18:57.388Z,12.23
2019-01-05T12:21:56.786Z,12.07
2019-01-05T12:24:56.646Z,11.28
2019-01-05T12:27:55.879Z,12.88
2019-01-05T12:30:55.049Z,13.22
2019-01-05T12:33:51.537Z,12.70
2019-01-05T12:36:54.500Z,12.50
2019-01-05T12:39:54.001Z,14.55
2019-01-05T12:42:53.223Z,14.60
2019-01-05T12:45:53.057Z,13.78
2019-01-05T12:48:52.908Z,13.78
2019-01-05T12:51:52.800Z,14.28
2019-01-05T12:54:52.366Z,13.48
2019-01-05T12:58:00.479Z,13.00
2019-01-05T13:00:59.569Z,13.15
2019-01-05T13:03:59.584Z,13.72
2019-01-05T13:06:58.932Z,13.53
2019-01-05T13:10:01.059Z,12.18
2019-01-05T13:13:06.788Z,12.75
2019-01-05T13:16:11.798Z,12.18
2019-01-05T13:19:16.952Z,13.10
2019-01-05T13:22:38.482Z,11.97
2019-01-05T13:25:37.865Z,13.83
2019-01-05T13:28:34.811Z,14.53
2019-01-05T13:31:34.346Z,15.03
2019-01-05T13:34:33.730Z,13.98
2019-01-05T13:37:32.861Z,14.45
2019-01-05T13:40:31.957Z,12.90
2019-01-05T13:43:31.071Z,13.75
2019-01-05T13:46:30.365Z,12.05
2019-01-05T13:49:32.542Z,10.93
2019-01-05T13:52:32.338Z,12.10
2019-01-05T13:55:32.253Z,12.03
2019-01-05T13:58:32.260Z,13.10
2019-01-05T14:01:31.386Z,12.82
2019-01-05T14:04:30.633Z,12.90
2019-01-05T14:07:29.618Z,11.60
2019-01-05T14:10:31.609Z,13.62
2019-01-05T14:13:31.348Z,13.40
2019-01-05T14:16:31.100Z,14.85
2019-01-05T14:19:26.631Z,14.23
2019-01-05T14:22:26.470Z,13.25
2019-01-05T14:25:25.782Z,12.75
2019-01-05T14:28:24.826Z,13.88
2019-01-05T14:31:24.050Z,13.75
2019-01-05T14:34:11.302Z,14.33
2019-01-05T14:37:10.628Z,13.68
2019-01-05T14:40:10.772Z,13.80
2019-01-05T14:43:10.577Z,13.83
2019-01-05T14:46:03.904Z,14.33
2019-01-05T14:49:03.830Z,13.10
2019-01-05T14:52:09.113Z,13.25
2019-01-05T14:54:59.935Z,13.80
2019-01-05T14:57:59.471Z,14.80
2019-01-05T15:00:59.739Z,15.05
2019-01-05T15:03:58.922Z,14.83
2019-01-05T15:06:58.255Z,15.85
2019-01-05T15:10:03.310Z,15.40
2019-01-05T15:13:05.937Z,16.65
2019-01-05T15:16:11.295Z,15.50
2019-01-05T15:19:11.313Z,16.05
2019-01-05T15:22:13.541Z,16.80
2019-01-05T15:25:12.960Z,16.95
2019-01-05T15:28:13.001Z,15.95
2019-01-05T15:31:14.273Z,15.32
2019-01-05T15:34:13.521Z,18.17
2019-01-05T15:37:16.766Z,18.30
2019-01-05T15:40:10.104Z,18.27
2019-01-05T15:43:16.814Z,18.02
2019-01-05T15:46:16.042Z,17.95
2019-01-05T15:49:21.056Z,17.12
2019-01-05T15:52:21.238Z,17.92
2019-01-05T15:55:20.540Z,17.23
2019-01-05T15:58:19.734Z,18.00
2019-01-05T16:01:19.848Z,18.25
2019-01-05T16:04:27.375Z,18.90
2019-01-05T16:07:36.642Z,19.30
2019-01-05T16:10:38.216Z,20.25
2019-01-05T16:13:38.170Z,19.27
2019-01-05T16:16:30.775Z,19.73
2019-01-05T16:19:30.502Z,18.60
2019-01-05T16:22:30.410Z,20.48
2019-01-05T16:25:30.165Z,19.85
2019-01-05T16:28:29.441Z,21.35
2019-01-05T16:31:28.572Z,21.97
2019-01-05T16:34:27.827Z,20.30
2019-01-05T16:37:33.166Z,22.20
2019-01-05T16:40:54.849Z,21.23
2019-01-05T16:43:54.108Z,20.52
2019-01-05T16:46:58.488Z,20.10
2019-01-05T16:50:04.279Z,18.57
2019-01-05T16:53:04.282Z,21.52
2019-01-05T16:56:04.473Z,18.85
2019-01-05T16:59:04.518Z,20.35
2019-01-05T17:02:03.900Z,19.00
2019-01-05T17:05:04.208Z,20.23
2019-01-05T17:08:03.616Z,20.57
2019-01-05T17:11:03.607Z,19.70
2019-01-05T17:14:03.096Z,19.23
2019-01-05T17:17:02.260Z,22.75
2019-01-05T17:20:08.762Z,22.67
2019-01-05T17:23:03.531Z,24.80
2019-01-05T17:26:02.874Z,20.65
2019-01-05T17:29:02.133Z,18.60
2019-01-05T17:32:01.550Z,17.12
2019-01-05T17:35:07.439Z,18.90
2019-01-05T17:38:29.071Z,19.70
2019-01-05T17:41:29.440Z,18.67
2019-01-05T17:44:29.297Z,20.72
2019-01-05T17:47:32.682Z,19.00
2019-01-05T17:50:31.851Z,19.52
2019-01-05T17:53:31.190Z,18.42
2019-01-05T17:56:18.224Z,17.10
2019-01-05T17:59:24.671Z,18.05
2019-01-05T18:02:24.376Z,17.37
2019-01-05T18:05:05.738Z,17.67
2019-01-05T18:08:05.728Z,18.00
2019-01-05T18:11:05.236Z,16.50
2019-01-05T18:14:04.506Z,18.02
2019-01-05T18:17:03.893Z,18.48
2019-01-05T18:20:06.011Z,20.00
2019-01-05T18:23:05.472Z,18.85
2019-01-05T18:26:05.320Z,23.35
2019-01-05T18:29:07.964Z,17.45
2019-01-05T18:32:07.053Z,18.98
2019-01-05T18:35:13.212Z,18.60
2019-01-05T18:38:12.751Z,18.15
2019-01-05T18:41:12.113Z,18.85
2019-01-05T18:44:18.667Z,18.65
2019-01-05T18:47:18.433Z,17.15
2019-01-05T18:50:18.305Z,19.52
2019-01-05T18:53:21.320Z,20.70
2019-01-05T18:56:20.765Z,19.60
2019-01-05T18:59:20.012Z,18.95
2019-01-05T19:02:19.562Z,17.00
2019-01-05T19:05:19.766Z,17.80
2019-01-05T19:08:19.856Z,19.10
2019-01-05T19:11:19.474Z,17.67
2019-01-05T19:14:19.420Z,16.30
2019-01-05T19:17:18.668Z,18.12
2019-01-05T19:20:17.782Z,18.60
2019-01-05T19:23:14.679Z,16.82
2019-01-05T19:26:06.414Z,16.00
2019-01-05T19:29:06.344Z,18.20
2019-01-05T19:32:08.404Z,19.20
2019-01-05T19:35:07.886Z,18.35
2019-01-05T19:38:15.057Z,18.32
2019-01-05T19:41:15.151Z,18.55
2019-01-05T19:44:14.418Z,18.37
2019-01-05T19:47:13.581Z,17.80
2019-01-05T19:50:12.964Z,19.45
2019-01-05T19:53:12.204Z,18.17
2019-01-05T19:56:11.806Z,16.00
2019-01-05T19:59:11.694Z,17.62
2019-01-05T20:02:11.032Z,16.55
2019-01-05T20:05:11.866Z,17.92
2019-01-05T20:08:14.557Z,18.15
2019-01-05T20:11:14.120Z,18.80
2019-01-05T20:14:13.294Z,18.25
2019-01-05T20:17:08.386Z,16.75
2019-01-05T20:20:07.551Z,17.00
2019-01-05T20:23:06.845Z,17.60
2019-01-05T20:26:06.168Z,16.27
2019-01-05T20:29:07.440Z,18.85
2019-01-05T20:32:07.227Z,17.12
2019-01-05T20:35:12.523Z,17.42
2019-01-05T20:38:00.301Z,18.52
2019-01-05T20:41:06.792Z,19.60
2019-01-05T20:44:06.387Z,20.68
2019-01-05T20:47:06.267Z,19.25
2019-01-05T20:50:05.580Z,17.87
2019-01-05T20:53:07.741Z,18.65
2019-01-05T20:56:13.051Z,17.75
2019-01-05T20:59:14.781Z,18.23
2019-01-05T21:02:14.601Z,17.82
2019-01-05T21:05:27.806Z,17.67
2019-01-05T21:09:01.403Z,18.10
2019-01-05T21:12:01.465Z,18.75
2019-01-05T21:15:07.323Z,19.50
2019-01-05T21:18:07.043Z,19.32
2019-01-05T21:21:07.052Z,20.62
2019-01-05T21:24:06.289Z,18.15
2019-01-05T21:27:05.583Z,18.77
2019-01-05T21:30:04.982Z,18.48
2019-01-05T21:33:04.186Z,18.37
2019-01-05T21:36:03.800Z,19.50
2019-01-05T21:39:03.865Z,18.23
2019-01-05T21:42:25.310Z,17.82
2019-01-05T21:45:27.262Z,18.73
2019-01-05T21:48:26.787Z,19.75
2019-01-05T21:51:25.933Z,17.67
2019-01-05T21:54:25.290Z,18.37
2019-01-05T21:57:24.431Z,17.80
2019-01-05T22:00:24.512Z,18.12
2019-01-05T22:03:23.662Z,17.27
2019-01-05T22:06:22.996Z,18.70
2019-01-05T22:09:23.021Z,19.82
2019-01-05T22:12:11.224Z,20.20
2019-01-05T22:15:13.405Z,19.75
2019-01-05T22:18:12.779Z,19.75
2019-01-05T22:21:12.139Z,22.13
2019-01-05T22:24:06.061Z,18.85
2019-01-05T22:27:05.547Z,19.45
2019-01-05T22:30:04.866Z,17.90
2019-01-05T22:33:04.203Z,18.35
2019-01-05T22:36:03.617Z,16.60
2019-01-05T22:39:03.595Z,18.75
2019-01-05T22:42:06.500Z,17.12
2019-01-05T22:44:57.987Z,18.35
2019-01-05T22:47:57.573Z,17.73
2019-01-05T22:50:57.612Z,19.23
2019-01-05T22:53:57.568Z,20.27
2019-01-05T22:57:03.864Z,19.65
2019-01-05T23:00:10.421Z,18.02
2019-01-05T23:03:31.536Z,17.87
2019-01-05T23:06:30.976Z,18.95
2019-01-05T23:09:30.153Z,20.97
2019-01-05T23:12:29.329Z,19.27
2019-01-05T23:15:31.619Z,17.02
2019-01-05T23:18:34.693Z,20.12
2019-01-05T23:21:27.274Z,17.87
2019-01-05T23:24:26.353Z,19.05
2019-01-05T23:27:25.286Z,19.23
2019-01-05T23:30:18.542Z,18.02
2019-01-05T23:33:18.003Z,18.75
2019-01-05T23:36:17.361Z,18.95
2019-01-05T23:39:16.766Z,19.42
2019-01-05T23:42:16.765Z,18.85
2019-01-05T23:45:22.013Z,19.32
2019-01-05T23:48:21.143Z,18.60
2019-01-05T23:51:21.453Z,19.15
2019-01-05T23:54:21.394Z,20.05
2019-01-05T23:57:18.468Z,18.30
